sensor_id;sensor_type;location;lat;lon;timestamp;P1;durP1;ratioP1;P2;durP2;ratioP2
34573;SDS011;20809;49.594;8.734;2023-04-15T00:01:19;12.53;;;6.73;;
34573;SDS011;20809;49.594;8.734;2023-04-15T00:04:22;13.55;;;6.40;;
34573;SDS011;20809;49.594;8.734;2023-04-15T00:07:24;12.18;;;6.68;;
34573;SDS011;20809;49.594;8.734;2023-04-15T00:10:28;14.27;;;8.52;;
34573;SDS011;20809;49.594;8.734;2023-04-15T00:13:30;16.20;;;7.80;;
34573;SDS011;20809;49.594;8.734;2023-04-15T00:16:36;12.98;;;6.80;;
34573;SDS011;20809;49.594;8.734;2023-04-15T00:22:40;10.70;;;6.18;;
34573;SDS011;20809;49.594;8.734;2023-04-15T00:25:43;17.70;;;7.15;;
34573;SDS011;20809;49.594;8.734;2023-04-15T00:28:47;12.10;;;7.18;;
34573;SDS011;20809;49.594;8.734;2023-04-15T00:31:50;11.10;;;6.00;;
34573;SDS011;20809;49.594;8.734;2023-04-15T00:34:57;11.65;;;6.40;;
34573;SDS011;20809;49.594;8.734;2023-04-15T00:37:58;10.23;;;5.85;;
34573;SDS011;20809;49.594;8.734;2023-04-15T00:41:00;11.23;;;6.03;;
34573;SDS011;20809;49.594;8.734;2023-04-15T00:44:03;9.15;;;5.10;;
34573;SDS011;20809;49.594;8.734;2023-04-15T00:47:05;10.50;;;5.65;;
34573;SDS011;20809;49.594;8.734;2023-04-15T00:50:09;7.47;;;4.93;;
34573;SDS011;20809;49.594;8.734;2023-04-15T00:53:11;9.10;;;5.90;;
34573;SDS011;20809;49.594;8.734;2023-04-15T00:59:08;7.00;;;4.40;;
34573;SDS011;20809;49.594;8.734;2023-04-15T01:02:13;8.88;;;5.00;;
34573;SDS011;20809;49.594;8.734;2023-04-15T01:05:15;12.80;;;5.75;;
34573;SDS011;20809;49.594;8.734;2023-04-15T01:08:18;11.35;;;5.63;;
34573;SDS011;20809;49.594;8.734;2023-04-15T01:11:20;10.48;;;5.35;;
34573;SDS011;20809;49.594;8.734;2023-04-15T01:14:23;8.48;;;5.15;;
34573;SDS011;20809;49.594;8.734;2023-04-15T01:17:25;8.73;;;5.45;;
34573;SDS011;20809;49.594;8.734;2023-04-15T01:20:28;12.32;;;6.10;;
34573;SDS011;20809;49.594;8.734;2023-04-15T01:23:30;9.50;;;6.07;;
34573;SDS011;20809;49.594;8.734;2023-04-15T01:26:36;8.07;;;5.10;;
34573;SDS011;20809;49.594;8.734;2023-04-15T01:29:41;10.95;;;5.38;;
34573;SDS011;20809;49.594;8.734;2023-04-15T01:32:44;8.75;;;4.43;;
34573;SDS011;20809;49.594;8.734;2023-04-15T01:35:46;11.95;;;5.53;;
34573;SDS011;20809;49.594;8.734;2023-04-15T01:41:50;12.70;;;6.55;;
34573;SDS011;20809;49.594;8.734;2023-04-15T01:44:51;7.70;;;5.43;;
34573;SDS011;20809;49.594;8.734;2023-04-15T01:47:54;9.10;;;5.38;;
34573;SDS011;20809;49.594;8.734;2023-04-15T01:50:59;7.13;;;4.60;;
34573;SDS011;20809;49.594;8.734;2023-04-15T01:54:01;9.27;;;5.03;;
34573;SDS011;20809;49.594;8.734;2023-04-15T01:57:02;10.50;;;5.65;;
34573;SDS011;20809;49.594;8.734;2023-04-15T02:00:04;7.75;;;5.25;;
34573;SDS011;20809;49.594;8.734;2023-04-15T02:03:09;11.02;;;5.18;;
34573;SDS011;20809;49.594;8.734;2023-04-15T02:09:11;10.53;;;5.20;;
34573;SDS011;20809;49.594;8.734;2023-04-15T02:12:13;8.05;;;5.38;;
34573;SDS011;20809;49.594;8.734;2023-04-15T02:15:14;7.85;;;5.35;;
34573;SDS011;20809;49.594;8.734;2023-04-15T02:18:15;7.97;;;4.93;;
34573;SDS011;20809;49.594;8.734;2023-04-15T02:21:20;7.30;;;4.45;;
34573;SDS011;20809;49.594;8.734;2023-04-15T02:24:21;8.43;;;4.78;;
34573;SDS011;20809;49.594;8.734;2023-04-15T02:27:23;7.93;;;4.90;;
34573;SDS011;20809;49.594;8.734;2023-04-15T02:30:25;7.10;;;4.95;;
34573;SDS011;20809;49.594;8.734;2023-04-15T02:33:26;8.63;;;5.68;;
34573;SDS011;20809;49.594;8.734;2023-04-15T02:36:27;7.57;;;4.95;;
34573;SDS011;20809;49.594;8.734;2023-04-15T02:39:28;8.25;;;5.38;;
34573;SDS011;20809;49.594;8.734;2023-04-15T02:42:30;7.63;;;5.40;;
34573;SDS011;20809;49.594;8.734;2023-04-15T02:45:32;10.18;;;4.80;;
34573;SDS011;20809;49.594;8.734;2023-04-15T02:48:33;7.95;;;4.82;;
34573;SDS011;20809;49.594;8.734;2023-04-15T02:51:34;11.30;;;5.32;;
34573;SDS011;20809;49.594;8.734;2023-04-15T02:54:35;11.60;;;5.22;;
34573;SDS011;20809;49.594;8.734;2023-04-15T02:57:37;6.57;;;4.97;;
34573;SDS011;20809;49.594;8.734;2023-04-15T03:00:39;8.73;;;4.80;;
34573;SDS011;20809;49.594;8.734;2023-04-15T03:03:41;10.90;;;5.63;;
34573;SDS011;20809;49.594;8.734;2023-04-15T03:06:42;11.07;;;5.85;;
34573;SDS011;20809;49.594;8.734;2023-04-15T03:09:44;7.55;;;4.30;;
34573;SDS011;20809;49.594;8.734;2023-04-15T03:12:47;6.03;;;4.03;;
34573;SDS011;20809;49.594;8.734;2023-04-15T03:15:53;5.82;;;4.65;;
34573;SDS011;20809;49.594;8.734;2023-04-15T03:18:57;7.47;;;4.28;;
34573;SDS011;20809;49.594;8.734;2023-04-15T03:21:58;4.93;;;4.13;;
34573;SDS011;20809;49.594;8.734;2023-04-15T03:24:59;6.22;;;4.25;;
34573;SDS011;20809;49.594;8.734;2023-04-15T03:28:00;7.43;;;4.90;;
34573;SDS011;20809;49.594;8.734;2023-04-15T03:31:01;7.88;;;4.78;;
34573;SDS011;20809;49.594;8.734;2023-04-15T03:34:02;8.75;;;4.32;;
34573;SDS011;20809;49.594;8.734;2023-04-15T03:37:04;6.35;;;4.47;;
34573;SDS011;20809;49.594;8.734;2023-04-15T03:40:05;6.53;;;4.60;;
34573;SDS011;20809;49.594;8.734;2023-04-15T03:43:08;6.90;;;4.47;;
34573;SDS011;20809;49.594;8.734;2023-04-15T03:46:10;5.35;;;4.15;;
34573;SDS011;20809;49.594;8.734;2023-04-15T03:49:12;6.57;;;4.53;;
34573;SDS011;20809;49.594;8.734;2023-04-15T03:52:14;7.70;;;4.43;;
34573;SDS011;20809;49.594;8.734;2023-04-15T03:55:15;8.82;;;5.05;;
34573;SDS011;20809;49.594;8.734;2023-04-15T03:58:20;6.43;;;4.80;;
34573;SDS011;20809;49.594;8.734;2023-04-15T04:01:21;7.20;;;4.38;;
34573;SDS011;20809;49.594;8.734;2023-04-15T04:04:23;10.23;;;5.45;;
34573;SDS011;20809;49.594;8.734;2023-04-15T04:07:26;7.60;;;4.50;;
34573;SDS011;20809;49.594;8.734;2023-04-15T04:10:28;6.03;;;4.65;;
34573;SDS011;20809;49.594;8.734;2023-04-15T04:13:31;7.82;;;4.70;;
34573;SDS011;20809;49.594;8.734;2023-04-15T04:16:34;7.68;;;4.30;;
34573;SDS011;20809;49.594;8.734;2023-04-15T04:19:37;5.82;;;4.57;;
34573;SDS011;20809;49.594;8.734;2023-04-15T04:22:40;8.98;;;4.70;;
34573;SDS011;20809;49.594;8.734;2023-04-15T04:25:43;7.25;;;4.28;;
34573;SDS011;20809;49.594;8.734;2023-04-15T04:28:46;8.65;;;5.07;;
34573;SDS011;20809;49.594;8.734;2023-04-15T04:31:49;8.23;;;6.20;;
34573;SDS011;20809;49.594;8.734;2023-04-15T04:34:53;17.33;;;11.43;;
34573;SDS011;20809;49.594;8.734;2023-04-15T04:37:56;27.50;;;17.30;;
34573;SDS011;20809;49.594;8.734;2023-04-15T04:41:04;14.25;;;9.70;;
34573;SDS011;20809;49.594;8.734;2023-04-15T04:44:06;14.10;;;10.02;;
34573;SDS011;20809;49.594;8.734;2023-04-15T04:47:08;21.17;;;11.93;;
34573;SDS011;20809;49.594;8.734;2023-04-15T04:50:10;9.63;;;6.15;;
34573;SDS011;20809;49.594;8.734;2023-04-15T04:53:11;12.60;;;7.88;;
34573;SDS011;20809;49.594;8.734;2023-04-15T04:56:14;16.33;;;9.90;;
34573;SDS011;20809;49.594;8.734;2023-04-15T04:59:16;15.35;;;9.25;;
34573;SDS011;20809;49.594;8.734;2023-04-15T05:02:19;15.50;;;7.75;;
34573;SDS011;20809;49.594;8.734;2023-04-15T05:05:28;12.10;;;7.05;;
34573;SDS011;20809;49.594;8.734;2023-04-15T05:08:30;13.68;;;5.82;;
34573;SDS011;20809;49.594;8.734;2023-04-15T05:11:33;10.93;;;6.00;;
34573;SDS011;20809;49.594;8.734;2023-04-15T05:14:35;9.88;;;6.80;;
34573;SDS011;20809;49.594;8.734;2023-04-15T05:17:36;9.13;;;5.70;;
34573;SDS011;20809;49.594;8.734;2023-04-15T05:20:38;10.07;;;5.43;;
34573;SDS011;20809;49.594;8.734;2023-04-15T05:23:40;10.55;;;6.35;;
34573;SDS011;20809;49.594;8.734;2023-04-15T05:26:42;9.77;;;6.03;;
34573;SDS011;20809;49.594;8.734;2023-04-15T05:29:44;15.90;;;6.32;;
34573;SDS011;20809;49.594;8.734;2023-04-15T05:32:45;8.27;;;5.75;;
34573;SDS011;20809;49.594;8.734;2023-04-15T05:35:50;8.57;;;5.35;;
34573;SDS011;20809;49.594;8.734;2023-04-15T05:38:55;10.40;;;5.70;;
34573;SDS011;20809;49.594;8.734;2023-04-15T05:41:56;6.05;;;5.13;;
34573;SDS011;20809;49.594;8.734;2023-04-15T05:47:59;6.10;;;4.70;;
34573;SDS011;20809;49.594;8.734;2023-04-15T05:51:02;9.93;;;5.70;;
34573;SDS011;20809;49.594;8.734;2023-04-15T05:57:07;6.47;;;5.20;;
34573;SDS011;20809;49.594;8.734;2023-04-15T06:00:09;7.25;;;4.35;;
34573;SDS011;20809;49.594;8.734;2023-04-15T06:03:12;6.75;;;5.05;;
34573;SDS011;20809;49.594;8.734;2023-04-15T06:06:17;7.45;;;5.60;;
34573;SDS011;20809;49.594;8.734;2023-04-15T06:09:21;8.40;;;5.28;;
34573;SDS011;20809;49.594;8.734;2023-04-15T06:12:26;10.88;;;6.20;;
34573;SDS011;20809;49.594;8.734;2023-04-15T06:15:29;9.38;;;5.63;;
34573;SDS011;20809;49.594;8.734;2023-04-15T06:18:34;9.50;;;5.90;;
34573;SDS011;20809;49.594;8.734;2023-04-15T06:21:39;7.90;;;5.75;;
34573;SDS011;20809;49.594;8.734;2023-04-15T06:24:44;8.25;;;5.97;;
34573;SDS011;20809;49.594;8.734;2023-04-15T06:27:48;8.95;;;5.40;;
34573;SDS011;20809;49.594;8.734;2023-04-15T06:30:49;8.85;;;5.30;;
34573;SDS011;20809;49.594;8.734;2023-04-15T06:33:50;6.07;;;4.90;;
34573;SDS011;20809;49.594;8.734;2023-04-15T06:36:51;9.05;;;5.32;;
34573;SDS011;20809;49.594;8.734;2023-04-15T06:39:53;6.18;;;4.45;;
34573;SDS011;20809;49.594;8.734;2023-04-15T06:42:57;5.13;;;4.45;;
34573;SDS011;20809;49.594;8.734;2023-04-15T06:45:58;176.50;;;21.20;;
34573;SDS011;20809;49.594;8.734;2023-04-15T06:52:00;19.57;;;12.17;;
34573;SDS011;20809;49.594;8.734;2023-04-15T06:58:02;9.97;;;6.93;;
34573;SDS011;20809;49.594;8.734;2023-04-15T07:01:02;9.90;;;4.97;;
34573;SDS011;20809;49.594;8.734;2023-04-15T07:04:03;24.35;;;7.28;;
34573;SDS011;20809;49.594;8.734;2023-04-15T07:10:07;8.70;;;4.63;;
34573;SDS011;20809;49.594;8.734;2023-04-15T07:13:09;6.25;;;5.15;;
34573;SDS011;20809;49.594;8.734;2023-04-15T07:16:10;7.47;;;5.20;;
34573;SDS011;20809;49.594;8.734;2023-04-15T07:19:12;6.80;;;5.07;;
34573;SDS011;20809;49.594;8.734;2023-04-15T07:25:17;5.90;;;4.32;;
34573;SDS011;20809;49.594;8.734;2023-04-15T07:28:23;9.52;;;4.60;;
34573;SDS011;20809;49.594;8.734;2023-04-15T07:31:29;4.50;;;4.10;;
34573;SDS011;20809;49.594;8.734;2023-04-15T07:34:33;5.70;;;3.97;;
34573;SDS011;20809;49.594;8.734;2023-04-15T07:37:37;5.18;;;3.50;;
34573;SDS011;20809;49.594;8.734;2023-04-15T07:40:42;8.65;;;6.05;;
34573;SDS011;20809;49.594;8.734;2023-04-15T07:43:46;13.45;;;6.78;;
34573;SDS011;20809;49.594;8.734;2023-04-15T07:46:51;5.35;;;3.00;;
34573;SDS011;20809;49.594;8.734;2023-04-15T07:49:54;5.93;;;4.05;;
34573;SDS011;20809;49.594;8.734;2023-04-15T07:52:57;6.03;;;3.38;;
34573;SDS011;20809;49.594;8.734;2023-04-15T07:56:01;4.97;;;3.47;;
34573;SDS011;20809;49.594;8.734;2023-04-15T07:59:06;3.80;;;3.33;;
34573;SDS011;20809;49.594;8.734;2023-04-15T08:02:10;8.18;;;4.20;;
34573;SDS011;20809;49.594;8.734;2023-04-15T08:05:15;4.22;;;3.08;;
34573;SDS011;20809;49.594;8.734;2023-04-15T08:08:19;3.15;;;2.67;;
34573;SDS011;20809;49.594;8.734;2023-04-15T08:11:38;5.00;;;2.90;;
34573;SDS011;20809;49.594;8.734;2023-04-15T08:14:43;4.65;;;2.72;;
34573;SDS011;20809;49.594;8.734;2023-04-15T08:17:54;3.42;;;2.40;;
34573;SDS011;20809;49.594;8.734;2023-04-15T08:21:18;2.90;;;2.20;;
34573;SDS011;20809;49.594;8.734;2023-04-15T08:24:33;2.47;;;2.28;;
34573;SDS011;20809;49.594;8.734;2023-04-15T08:27:58;5.80;;;2.58;;
34573;SDS011;20809;49.594;8.734;2023-04-15T08:31:17;4.68;;;2.40;;
34573;SDS011;20809;49.594;8.734;2023-04-15T08:34:33;4.60;;;2.58;;
34573;SDS011;20809;49.594;8.734;2023-04-15T08:37:51;5.22;;;2.60;;
34573;SDS011;20809;49.594;8.734;2023-04-15T08:41:04;6.55;;;3.22;;
34573;SDS011;20809;49.594;8.734;2023-04-15T08:44:15;4.75;;;2.85;;
34573;SDS011;20809;49.594;8.734;2023-04-15T08:47:34;4.97;;;2.92;;
34573;SDS011;20809;49.594;8.734;2023-04-15T08:50:47;3.17;;;2.90;;
34573;SDS011;20809;49.594;8.734;2023-04-15T08:54:00;3.45;;;3.15;;
34573;SDS011;20809;49.594;8.734;2023-04-15T08:57:21;3.90;;;3.25;;
34573;SDS011;20809;49.594;8.734;2023-04-15T09:01:04;7.88;;;3.78;;
34573;SDS011;20809;49.594;8.734;2023-04-15T09:04:13;4.47;;;3.55;;
34573;SDS011;20809;49.594;8.734;2023-04-15T09:07:29;4.00;;;3.60;;
34573;SDS011;20809;49.594;8.734;2023-04-15T09:10:43;4.35;;;3.90;;
34573;SDS011;20809;49.594;8.734;2023-04-15T09:13:47;4.18;;;3.78;;
34573;SDS011;20809;49.594;8.734;2023-04-15T09:16:59;5.72;;;4.47;;
34573;SDS011;20809;49.594;8.734;2023-04-15T09:20:39;7.45;;;4.82;;
34573;SDS011;20809;49.594;8.734;2023-04-15T09:23:58;6.70;;;4.78;;
34573;SDS011;20809;49.594;8.734;2023-04-15T09:27:25;6.15;;;4.82;;
34573;SDS011;20809;49.594;8.734;2023-04-15T09:30:32;6.50;;;4.68;;
34573;SDS011;20809;49.594;8.734;2023-04-15T09:33:52;9.90;;;5.00;;
34573;SDS011;20809;49.594;8.734;2023-04-15T09:36:56;7.25;;;4.57;;
34573;SDS011;20809;49.594;8.734;2023-04-15T09:39:56;4.68;;;4.28;;
34573;SDS011;20809;49.594;8.734;2023-04-15T09:42:58;5.97;;;4.30;;
34573;SDS011;20809;49.594;8.734;2023-04-15T09:49:07;4.97;;;3.97;;
34573;SDS011;20809;49.594;8.734;2023-04-15T09:52:12;5.38;;;3.90;;
34573;SDS011;20809;49.594;8.734;2023-04-15T09:55:13;4.03;;;3.20;;
34573;SDS011;20809;49.594;8.734;2023-04-15T09:58:18;2.75;;;2.47;;
34573;SDS011;20809;49.594;8.734;2023-04-15T10:01:24;3.70;;;2.40;;
34573;SDS011;20809;49.594;8.734;2023-04-15T10:04:26;3.45;;;2.00;;
34573;SDS011;20809;49.594;8.734;2023-04-15T10:07:28;3.38;;;2.22;;
34573;SDS011;20809;49.594;8.734;2023-04-15T10:10:30;2.83;;;1.80;;
34573;SDS011;20809;49.594;8.734;2023-04-15T10:13:32;5.03;;;2.10;;
34573;SDS011;20809;49.594;8.734;2023-04-15T10:16:37;3.55;;;2.38;;
34573;SDS011;20809;49.594;8.734;2023-04-15T10:19:42;5.43;;;2.63;;
34573;SDS011;20809;49.594;8.734;2023-04-15T10:22:44;2.17;;;1.55;;
34573;SDS011;20809;49.594;8.734;2023-04-15T10:25:47;3.22;;;2.33;;
34573;SDS011;20809;49.594;8.734;2023-04-15T10:28:53;3.47;;;2.40;;
34573;SDS011;20809;49.594;8.734;2023-04-15T10:31:55;5.00;;;2.45;;
34573;SDS011;20809;49.594;8.734;2023-04-15T10:34:57;4.15;;;2.30;;
34573;SDS011;20809;49.594;8.734;2023-04-15T10:37:59;2.80;;;1.88;;
34573;SDS011;20809;49.594;8.734;2023-04-15T10:44:16;4.53;;;2.53;;
34573;SDS011;20809;49.594;8.734;2023-04-15T10:47:21;5.13;;;2.40;;
34573;SDS011;20809;49.594;8.734;2023-04-15T10:50:27;2.83;;;2.15;;
34573;SDS011;20809;49.594;8.734;2023-04-15T10:53:35;3.00;;;1.95;;
34573;SDS011;20809;49.594;8.734;2023-04-15T10:56:47;5.82;;;2.25;;
34573;SDS011;20809;49.594;8.734;2023-04-15T11:00:16;3.78;;;2.47;;
34573;SDS011;20809;49.594;8.734;2023-04-15T11:03:37;3.58;;;1.60;;
34573;SDS011;20809;49.594;8.734;2023-04-15T11:06:45;2.53;;;1.40;;
34573;SDS011;20809;49.594;8.734;2023-04-15T11:13:28;3.97;;;1.98;;
34573;SDS011;20809;49.594;8.734;2023-04-15T11:16:40;1.88;;;1.38;;
34573;SDS011;20809;49.594;8.734;2023-04-15T11:19:45;2.35;;;1.50;;
34573;SDS011;20809;49.594;8.734;2023-04-15T11:22:52;1.75;;;1.08;;
34573;SDS011;20809;49.594;8.734;2023-04-15T11:26:00;1.30;;;1.02;;
34573;SDS011;20809;49.594;8.734;2023-04-15T11:29:21;1.58;;;1.00;;
34573;SDS011;20809;49.594;8.734;2023-04-15T11:32:41;3.08;;;1.02;;
34573;SDS011;20809;49.594;8.734;2023-04-15T11:35:46;3.20;;;1.27;;
34573;SDS011;20809;49.594;8.734;2023-04-15T11:39:05;1.52;;;1.20;;
34573;SDS011;20809;49.594;8.734;2023-04-15T11:42:23;3.33;;;1.33;;
34573;SDS011;20809;49.594;8.734;2023-04-15T11:45:34;1.45;;;1.08;;
34573;SDS011;20809;49.594;8.734;2023-04-15T11:48:41;1.40;;;1.25;;
34573;SDS011;20809;49.594;8.734;2023-04-15T11:51:48;2.03;;;1.20;;
34573;SDS011;20809;49.594;8.734;2023-04-15T11:55:00;1.73;;;1.13;;
34573;SDS011;20809;49.594;8.734;2023-04-15T12:01:17;3.70;;;1.10;;
34573;SDS011;20809;49.594;8.734;2023-04-15T12:04:21;2.28;;;1.10;;
34573;SDS011;20809;49.594;8.734;2023-04-15T12:07:26;2.00;;;1.05;;
34573;SDS011;20809;49.594;8.734;2023-04-15T12:10:31;2.45;;;1.48;;
34573;SDS011;20809;49.594;8.734;2023-04-15T12:13:38;2.03;;;1.13;;
34573;SDS011;20809;49.594;8.734;2023-04-15T12:16:48;1.42;;;1.10;;
34573;SDS011;20809;49.594;8.734;2023-04-15T12:19:55;2.35;;;1.13;;
34573;SDS011;20809;49.594;8.734;2023-04-15T12:23:07;4.45;;;1.40;;
34573;SDS011;20809;49.594;8.734;2023-04-15T12:26:10;0.95;;;0.90;;
34573;SDS011;20809;49.594;8.734;2023-04-15T12:29:17;1.40;;;1.20;;
34573;SDS011;20809;49.594;8.734;2023-04-15T12:32:29;1.45;;;1.13;;
34573;SDS011;20809;49.594;8.734;2023-04-15T12:35:37;2.22;;;2.03;;
34573;SDS011;20809;49.594;8.734;2023-04-15T12:38:39;2.00;;;0.85;;
34573;SDS011;20809;49.594;8.734;2023-04-15T12:41:42;3.13;;;1.20;;
34573;SDS011;20809;49.594;8.734;2023-04-15T12:44:47;2.00;;;1.05;;
34573;SDS011;20809;49.594;8.734;2023-04-15T12:47:55;2.47;;;0.95;;
34573;SDS011;20809;49.594;8.734;2023-04-15T12:51:05;1.35;;;1.25;;
34573;SDS011;20809;49.594;8.734;2023-04-15T12:54:10;3.30;;;1.55;;
34573;SDS011;20809;49.594;8.734;2023-04-15T12:57:18;1.30;;;1.17;;
34573;SDS011;20809;49.594;8.734;2023-04-15T13:00:24;3.13;;;0.98;;
34573;SDS011;20809;49.594;8.734;2023-04-15T13:03:31;2.35;;;1.50;;
34573;SDS011;20809;49.594;8.734;2023-04-15T13:06:34;3.30;;;1.00;;
34573;SDS011;20809;49.594;8.734;2023-04-15T13:09:38;3.05;;;1.13;;
34573;SDS011;20809;49.594;8.734;2023-04-15T13:12:44;1.67;;;1.25;;
34573;SDS011;20809;49.594;8.734;2023-04-15T13:15:49;3.70;;;1.33;;
34573;SDS011;20809;49.594;8.734;2023-04-15T13:18:52;1.25;;;1.00;;
34573;SDS011;20809;49.594;8.734;2023-04-15T13:21:56;1.58;;;1.33;;
34573;SDS011;20809;49.594;8.734;2023-04-15T13:24:58;2.25;;;1.83;;
34573;SDS011;20809;49.594;8.734;2023-04-15T13:28:01;1.95;;;1.75;;
34573;SDS011;20809;49.594;8.734;2023-04-15T13:31:09;2.13;;;1.80;;
34573;SDS011;20809;49.594;8.734;2023-04-15T13:34:16;3.03;;;1.80;;
34573;SDS011;20809;49.594;8.734;2023-04-15T13:37:24;3.25;;;2.15;;
34573;SDS011;20809;49.594;8.734;2023-04-15T13:40:29;2.65;;;1.90;;
34573;SDS011;20809;49.594;8.734;2023-04-15T13:43:35;3.20;;;1.88;;
34573;SDS011;20809;49.594;8.734;2023-04-15T13:46:40;2.13;;;1.92;;
34573;SDS011;20809;49.594;8.734;2023-04-15T13:49:47;2.70;;;2.30;;
34573;SDS011;20809;49.594;8.734;2023-04-15T13:53:21;4.82;;;2.72;;
34573;SDS011;20809;49.594;8.734;2023-04-15T13:56:25;4.82;;;2.60;;
34573;SDS011;20809;49.594;8.734;2023-04-15T13:59:32;3.20;;;2.67;;
34573;SDS011;20809;49.594;8.734;2023-04-15T14:02:35;3.20;;;2.90;;
34573;SDS011;20809;49.594;8.734;2023-04-15T14:05:50;4.47;;;2.90;;
34573;SDS011;20809;49.594;8.734;2023-04-15T14:09:42;3.30;;;3.00;;
34573;SDS011;20809;49.594;8.734;2023-04-15T14:12:48;9.88;;;5.60;;
34573;SDS011;20809;49.594;8.734;2023-04-15T14:16:06;4.25;;;3.05;;
34573;SDS011;20809;49.594;8.734;2023-04-15T14:19:13;3.70;;;2.15;;
34573;SDS011;20809;49.594;8.734;2023-04-15T14:22:20;4.53;;;2.45;;
34573;SDS011;20809;49.594;8.734;2023-04-15T14:25:24;2.28;;;1.90;;
34573;SDS011;20809;49.594;8.734;2023-04-15T14:28:32;1.60;;;1.50;;
34573;SDS011;20809;49.594;8.734;2023-04-15T14:31:42;2.72;;;1.50;;
34573;SDS011;20809;49.594;8.734;2023-04-15T14:34:48;1.48;;;1.35;;
34573;SDS011;20809;49.594;8.734;2023-04-15T14:37:55;1.60;;;1.30;;
34573;SDS011;20809;49.594;8.734;2023-04-15T14:41:03;1.63;;;1.50;;
34573;SDS011;20809;49.594;8.734;2023-04-15T14:44:12;2.80;;;1.17;;
34573;SDS011;20809;49.594;8.734;2023-04-15T14:47:17;2.45;;;1.17;;
34573;SDS011;20809;49.594;8.734;2023-04-15T14:50:25;1.60;;;0.90;;
34573;SDS011;20809;49.594;8.734;2023-04-15T14:53:28;1.30;;;1.13;;
34573;SDS011;20809;49.594;8.734;2023-04-15T14:56:33;0.90;;;0.80;;
34573;SDS011;20809;49.594;8.734;2023-04-15T14:59:43;0.95;;;0.70;;
34573;SDS011;20809;49.594;8.734;2023-04-15T15:02:50;0.80;;;0.77;;
34573;SDS011;20809;49.594;8.734;2023-04-15T15:05:53;1.08;;;0.70;;
34573;SDS011;20809;49.594;8.734;2023-04-15T15:08:59;0.73;;;0.60;;
34573;SDS011;20809;49.594;8.734;2023-04-15T15:12:02;0.95;;;0.95;;
34573;SDS011;20809;49.594;8.734;2023-04-15T15:15:07;0.65;;;0.50;;
34573;SDS011;20809;49.594;8.734;2023-04-15T15:18:21;0.60;;;0.60;;
34573;SDS011;20809;49.594;8.734;2023-04-15T15:21:54;0.65;;;0.65;;
34573;SDS011;20809;49.594;8.734;2023-04-15T15:24:57;0.50;;;0.50;;
34573;SDS011;20809;49.594;8.734;2023-04-15T15:28:02;0.50;;;0.47;;
34573;SDS011;20809;49.594;8.734;2023-04-15T15:31:08;0.93;;;0.50;;
34573;SDS011;20809;49.594;8.734;2023-04-15T15:34:12;0.70;;;0.50;;
34573;SDS011;20809;49.594;8.734;2023-04-15T15:37:22;1.42;;;0.80;;
34573;SDS011;20809;49.594;8.734;2023-04-15T15:40:28;1.38;;;0.77;;
34573;SDS011;20809;49.594;8.734;2023-04-15T15:43:33;1.10;;;0.85;;
34573;SDS011;20809;49.594;8.734;2023-04-15T15:46:36;1.50;;;0.82;;
34573;SDS011;20809;49.594;8.734;2023-04-15T15:49:39;5.63;;;0.80;;
34573;SDS011;20809;49.594;8.734;2023-04-15T15:52:44;0.63;;;0.63;;
34573;SDS011;20809;49.594;8.734;2023-04-15T15:55:50;1.00;;;0.90;;
34573;SDS011;20809;49.594;8.734;2023-04-15T15:58:56;0.57;;;0.57;;
34573;SDS011;20809;49.594;8.734;2023-04-15T16:02:03;0.60;;;0.60;;
34573;SDS011;20809;49.594;8.734;2023-04-15T16:05:07;1.73;;;0.73;;
34573;SDS011;20809;49.594;8.734;2023-04-15T16:08:16;1.30;;;0.90;;
34573;SDS011;20809;49.594;8.734;2023-04-15T16:11:21;1.08;;;0.80;;
34573;SDS011;20809;49.594;8.734;2023-04-15T16:14:25;0.60;;;0.60;;
34573;SDS011;20809;49.594;8.734;2023-04-15T16:17:33;0.73;;;0.73;;
34573;SDS011;20809;49.594;8.734;2023-04-15T16:20:35;1.30;;;1.13;;
34573;SDS011;20809;49.594;8.734;2023-04-15T16:23:44;1.70;;;1.30;;
34573;SDS011;20809;49.594;8.734;2023-04-15T16:26:50;2.22;;;1.77;;
34573;SDS011;20809;49.594;8.734;2023-04-15T16:29:54;1.92;;;1.20;;
34573;SDS011;20809;49.594;8.734;2023-04-15T16:32:59;1.27;;;1.17;;
34573;SDS011;20809;49.594;8.734;2023-04-15T16:36:08;0.68;;;0.68;;
34573;SDS011;20809;49.594;8.734;2023-04-15T16:39:13;2.53;;;1.05;;
34573;SDS011;20809;49.594;8.734;2023-04-15T16:42:17;1.08;;;0.93;;
34573;SDS011;20809;49.594;8.734;2023-04-15T16:45:21;1.10;;;1.00;;
34573;SDS011;20809;49.594;8.734;2023-04-15T16:48:24;1.73;;;1.27;;
34573;SDS011;20809;49.594;8.734;2023-04-15T16:51:27;3.05;;;1.65;;
34573;SDS011;20809;49.594;8.734;2023-04-15T16:54:32;1.42;;;1.33;;
34573;SDS011;20809;49.594;8.734;2023-04-15T16:57:37;2.05;;;1.35;;
34573;SDS011;20809;49.594;8.734;2023-04-15T17:00:45;1.92;;;1.15;;
34573;SDS011;20809;49.594;8.734;2023-04-15T17:03:57;3.97;;;1.80;;
34573;SDS011;20809;49.594;8.734;2023-04-15T17:07:00;2.45;;;1.83;;
34573;SDS011;20809;49.594;8.734;2023-04-15T17:10:02;3.97;;;2.20;;
34573;SDS011;20809;49.594;8.734;2023-04-15T17:13:06;1.63;;;1.50;;
34573;SDS011;20809;49.594;8.734;2023-04-15T17:16:10;3.35;;;1.92;;
34573;SDS011;20809;49.594;8.734;2023-04-15T17:19:14;3.08;;;2.33;;
34573;SDS011;20809;49.594;8.734;2023-04-15T17:22:16;2.72;;;2.42;;
34573;SDS011;20809;49.594;8.734;2023-04-15T17:25:23;2.83;;;2.63;;
34573;SDS011;20809;49.594;8.734;2023-04-15T17:28:26;3.50;;;2.60;;
34573;SDS011;20809;49.594;8.734;2023-04-15T17:31:28;3.20;;;2.75;;
34573;SDS011;20809;49.594;8.734;2023-04-15T17:34:31;4.50;;;2.95;;
34573;SDS011;20809;49.594;8.734;2023-04-15T17:37:33;3.55;;;3.25;;
34573;SDS011;20809;49.594;8.734;2023-04-15T17:40:36;3.22;;;3.00;;
34573;SDS011;20809;49.594;8.734;2023-04-15T17:43:40;3.88;;;3.38;;
34573;SDS011;20809;49.594;8.734;2023-04-15T17:46:45;4.93;;;3.72;;
34573;SDS011;20809;49.594;8.734;2023-04-15T17:49:51;3.75;;;3.45;;
34573;SDS011;20809;49.594;8.734;2023-04-15T17:52:59;4.25;;;3.85;;
34573;SDS011;20809;49.594;8.734;2023-04-15T17:56:06;4.15;;;3.75;;
34573;SDS011;20809;49.594;8.734;2023-04-15T17:59:11;4.55;;;3.50;;
34573;SDS011;20809;49.594;8.734;2023-04-15T18:02:15;4.07;;;3.67;;
34573;SDS011;20809;49.594;8.734;2023-04-15T18:05:18;4.30;;;3.88;;
34573;SDS011;20809;49.594;8.734;2023-04-15T18:08:21;4.25;;;3.85;;
34573;SDS011;20809;49.594;8.734;2023-04-15T18:11:24;5.07;;;3.53;;
34573;SDS011;20809;49.594;8.734;2023-04-15T18:14:26;5.25;;;4.38;;
34573;SDS011;20809;49.594;8.734;2023-04-15T18:17:29;4.40;;;3.97;;
34573;SDS011;20809;49.594;8.734;2023-04-15T18:20:32;4.78;;;4.28;;
34573;SDS011;20809;49.594;8.734;2023-04-15T18:23:36;5.43;;;4.50;;
34573;SDS011;20809;49.594;8.734;2023-04-15T18:26:37;5.30;;;4.78;;
34573;SDS011;20809;49.594;8.734;2023-04-15T18:29:39;6.10;;;4.97;;
34573;SDS011;20809;49.594;8.734;2023-04-15T18:32:42;5.68;;;5.07;;
34573;SDS011;20809;49.594;8.734;2023-04-15T18:35:43;8.07;;;5.40;;
34573;SDS011;20809;49.594;8.734;2023-04-15T18:38:46;4.85;;;4.35;;
34573;SDS011;20809;49.594;8.734;2023-04-15T18:41:49;5.25;;;4.47;;
34573;SDS011;20809;49.594;8.734;2023-04-15T18:44:54;5.72;;;4.68;;
34573;SDS011;20809;49.594;8.734;2023-04-15T18:47:59;4.97;;;4.50;;
34573;SDS011;20809;49.594;8.734;2023-04-15T18:51:03;5.60;;;4.70;;
34573;SDS011;20809;49.594;8.734;2023-04-15T18:54:12;6.60;;;5.82;;
34573;SDS011;20809;49.594;8.734;2023-04-15T18:57:14;8.38;;;5.10;;
34573;SDS011;20809;49.594;8.734;2023-04-15T19:00:16;6.07;;;5.47;;
34573;SDS011;20809;49.594;8.734;2023-04-15T19:06:18;6.90;;;5.40;;
34573;SDS011;20809;49.594;8.734;2023-04-15T19:09:22;5.07;;;4.45;;
34573;SDS011;20809;49.594;8.734;2023-04-15T19:12:27;5.50;;;4.55;;
34573;SDS011;20809;49.594;8.734;2023-04-15T19:15:28;9.18;;;5.68;;
34573;SDS011;20809;49.594;8.734;2023-04-15T19:18:30;5.72;;;5.05;;
34573;SDS011;20809;49.594;8.734;2023-04-15T19:21:33;5.88;;;4.88;;